Time;durP1;ratioP1;P1;durP2;ratioP2;P2;SDS_P1;SDS_P2;PMS_P1;PMS_P2;Temp;Humidity;BMP_temperature;BMP_pressure;BME280_temperature;BME280_humidity;BME280_pressure;Samples;Min_cycle;Max_cycle;Signal;HPM_P1;HPM_P2
2024/03/01 00:02:23;;;;;;;16.00;13.93;;;;;;;9.08;100.00;99941.72;10491655;28;20476;-70
2024/03/01 00:07:24;;;;;;;13.70;12.32;;;;;;;9.11;100.00;99923.44;10491933;28;20056;-69
2024/03/01 00:12:25;;;;;;;14.88;13.35;;;;;;;9.14;100.00;99925.72;10491590;28;20066;-69
2024/03/01 00:17:25;;;;;;;14.30;12.90;;;;;;;9.21;100.00;99916.53;10491183;28;20487;-69
2024/03/01 00:22:25;;;;;;;13.27;11.38;;;;;;;9.22;100.00;99930.88;10491147;28;20063;-69
2024/03/01 00:27:26;;;;;;;10.80;9.88;;;;;;;9.26;100.00;99921.31;10491673;28;20070;-68
2024/03/01 00:32:26;;;;;;;22.45;12.60;;;;;;;9.24;100.00;99915.28;10481136;28;20033;-69
2024/03/01 00:37:27;;;;;;;12.35;10.95;;;;;;;9.25;100.00;99909.69;10498715;28;20032;-69
2024/03/01 00:42:27;;;;;;;14.50;13.02;;;;;;;9.30;100.00;99909.84;10498919;28;20034;-70
2024/03/01 00:47:27;;;;;;;12.93;11.65;;;;;;;9.32;100.00;99901.56;10499004;28;20035;-69
2024/03/01 00:52:28;;;;;;;13.65;9.30;;;;;;;9.27;100.00;99902.19;10498428;28;20086;-70
2024/03/01 00:57:28;;;;;;;11.75;10.55;;;;;;;9.32;100.00;99896.97;10497589;28;20052;-70
2024/03/01 01:02:29;;;;;;;11.18;10.05;;;;;;;9.36;100.00;99897.38;10497913;28;20035;-69
2024/03/01 01:07:29;;;;;;;9.50;8.63;;;;;;;9.39;100.00;99891.53;10497963;28;20024;-70
2024/03/01 01:12:30;;;;;;;8.45;7.75;;;;;;;9.39;100.00;99880.72;10497834;28;20041;-68
2024/03/01 01:17:31;;;;;;;10.70;9.70;;;;;;;9.39;100.00;99877.22;10497609;28;20039;-69
2024/03/01 01:22:31;;;;;;;9.80;8.93;;;;;;;9.42;100.00;99872.19;10496225;28;20030;-69
2024/03/01 01:27:32;;;;;;;10.32;9.32;;;;;;;9.48;100.00;99879.44;10496446;28;20563;-69
2024/03/01 01:32:32;;;;;;;9.52;8.52;;;;;;;9.41;100.00;99862.44;10496967;28;20043;-69
2024/03/01 01:37:33;;;;;;;8.40;7.68;;;;;;;9.47;100.00;99848.03;10496601;28;20460;-69
2024/03/01 01:42:33;;;;;;;9.77;8.25;;;;;;;9.49;100.00;99842.44;10496170;28;20068;-68
2024/03/01 01:47:34;;;;;;;9.60;8.57;;;;;;;9.55;100.00;99839.69;10496637;28;20089;-69
2024/03/01 01:52:34;;;;;;;9.07;6.30;;;;;;;9.64;100.00;99852.97;10478367;28;20092;-69
2024/03/01 01:57:34;;;;;;;7.35;6.65;;;;;;;9.64;100.00;99871.88;10494136;28;20082;-70
2024/03/01 02:02:35;;;;;;;8.30;4.07;;;;;;;9.34;100.00;99887.81;10494223;28;20062;-69
2024/03/01 02:07:36;;;;;;;12.82;4.60;;;;;;;8.67;100.00;99906.88;10495395;28;20056;-69
2024/03/01 02:12:37;;;;;;;6.13;2.85;;;;;;;8.04;100.00;99928.00;10493750;28;20044;-68
2024/03/01 02:17:37;;;;;;;10.93;3.10;;;;;;;7.44;100.00;99935.94;10495162;28;20464;-70
2024/03/01 02:22:38;;;;;;;1.50;1.40;;;;;;;7.19;100.00;99938.28;10495084;28;20028;-69
2024/03/01 02:27:39;;;;;;;1.65;1.38;;;;;;;6.88;100.00;99944.94;10492998;28;20039;-70
2024/03/01 02:32:39;;;;;;;2.65;1.70;;;;;;;6.62;100.00;99952.81;10494387;28;20511;-68
2024/03/01 02:37:43;;;;;;;7.25;2.50;;;;;;;6.51;100.00;99952.31;10494194;28;20025;-69
2024/03/01 02:42:43;;;;;;;3.83;1.80;;;;;;;6.46;100.00;99967.38;10492470;28;20364;-70
2024/03/01 02:47:44;;;;;;;3.60;1.38;;;;;;;6.23;100.00;99965.72;10493839;28;20063;-69
2024/03/01 02:52:44;;;;;;;1.65;1.27;;;;;;;6.31;100.00;99966.59;10492891;28;20033;-69
2024/03/01 02:57:45;;;;;;;1.65;1.27;;;;;;;6.22;100.00;99958.69;10492589;28;20049;-69
2024/03/01 03:02:46;;;;;;;5.30;2.35;;;;;;;6.18;100.00;99973.50;10491316;28;20517;-68
2024/03/01 03:07:50;;;;;;;12.48;2.30;;;;;;;6.12;100.00;99985.03;10491409;28;20031;-68
2024/03/01 03:12:50;;;;;;;1.73;1.65;;;;;;;6.14;100.00;99992.91;10493095;28;20055;-69
2024/03/01 03:17:50;;;;;;;3.22;1.75;;;;;;;6.18;100.00;99995.03;10492911;28;20041;-68
2024/03/01 03:22:51;;;;;;;1.83;1.48;;;;;;;6.19;100.00;100012.84;10492682;28;20056;-69
2024/03/01 03:27:51;;;;;;;5.00;1.90;;;;;;;6.26;100.00;100013.72;10474100;28;20047;-69
2024/03/01 03:32:52;;;;;;;4.28;2.78;;;;;;;6.29;100.00;100016.03;10492664;28;20051;-69
2024/03/01 03:37:52;;;;;;;6.43;2.25;;;;;;;6.22;100.00;100025.03;10490950;28;20040;-68
2024/03/01 03:42:52;;;;;;;8.75;2.58;;;;;;;6.20;100.00;100030.63;10492513;28;20111;-69
2024/03/01 03:47:53;;;;;;;2.40;1.90;;;;;;;6.15;100.00;100038.41;10492222;28;20032;-69
2024/03/01 03:52:54;;;;;;;1.10;1.05;;;;;;;6.12;100.00;100054.91;10492281;28;20098;-69
2024/03/01 03:57:54;;;;;;;0.60;0.60;;;;;;;6.16;100.00;100050.84;10491684;28;20024;-69
2024/03/01 04:02:55;;;;;;;2.15;2.05;;;;;;;6.14;100.00;100071.69;10494365;28;20063;-70
2024/03/01 04:07:55;;;;;;;0.57;0.57;;;;;;;6.19;100.00;100077.34;10499179;28;20033;-70
2024/03/01 04:12:55;;;;;;;0.60;0.60;;;;;;;6.20;100.00;100076.31;10500127;28;20047;-69
2024/03/01 04:17:56;;;;;;;0.60;0.60;;;;;;;6.18;100.00;100089.09;10499904;28;20032;-68
2024/03/01 04:22:56;;;;;;;0.50;0.50;;;;;;;6.20;100.00;100079.00;10499793;28;20040;-69
2024/03/01 04:27:57;;;;;;;0.50;0.50;;;;;;;6.24;100.00;100080.28;10499269;28;20032;-68
2024/03/01 04:32:57;;;;;;;0.65;0.65;;;;;;;6.23;100.00;100081.31;10499100;28;20142;-69
2024/03/01 04:37:58;;;;;;;0.60;0.60;;;;;;;6.02;100.00;100076.72;10499058;28;20025;-68
2024/03/01 04:42:59;;;;;;;0.55;0.55;;;;;;;5.89;100.00;100078.38;10499069;28;20051;-68
2024/03/01 04:47:59;;;;;;;0.57;0.57;;;;;;;5.77;100.00;100081.53;10498635;28;20574;-68
2024/03/01 04:53:00;;;;;;;0.60;0.60;;;;;;;5.76;100.00;100092.47;10498112;28;20020;-68
2024/03/01 04:58:00;;;;;;;0.60;0.60;;;;;;;5.58;100.00;100096.38;10497536;28;20039;-68
2024/03/01 05:03:06;;;;;;;0.70;0.70;;;;;;;5.34;100.00;100102.00;10496537;28;20032;-68
2024/03/01 05:08:09;;;;;;;0.70;0.70;;;;;;;5.31;100.00;100103.19;10497890;28;20024;-68
2024/03/01 05:13:09;;;;;;;0.52;0.52;;;;;;;5.18;100.00;100104.84;10497275;28;20086;-69
2024/03/01 05:18:11;;;;;;;0.60;0.60;;;;;;;5.05;100.00;100113.50;10495947;28;20030;-69
2024/03/01 05:23:11;;;;;;;1.55;1.23;;;;;;;4.95;100.00;100115.63;10495836;28;20082;-68
2024/03/01 05:28:12;;;;;;;0.57;0.57;;;;;;;4.83;100.00;100121.41;10496682;28;20117;-69
2024/03/01 05:33:12;;;;;;;0.70;0.70;;;;;;;4.77;100.00;100132.00;10497183;28;20028;-69
2024/03/01 05:38:13;;;;;;;0.60;0.60;;;;;;;4.76;100.00;100135.72;10478697;28;20474;-69
2024/03/01 05:43:13;;;;;;;0.63;0.63;;;;;;;4.70;100.00;100134.56;10496547;28;20476;-69
2024/03/01 05:48:16;;;;;;;0.55;0.55;;;;;;;4.72;100.00;100139.75;10435484;28;20058;-69
2024/03/01 05:53:16;;;;;;;0.60;0.60;;;;;;;4.58;100.00;100158.25;10495757;28;20680;-70
2024/03/01 05:58:19;;;;;;;0.82;0.82;;;;;;;4.70;100.00;100166.75;10495345;28;20036;-68
2024/03/01 06:03:21;;;;;;;0.60;0.60;;;;;;;4.80;100.00;100159.31;10495471;28;20123;-67
2024/03/01 06:08:21;;;;;;;0.60;0.60;;;;;;;4.97;100.00;100164.53;10495306;28;20050;-67
2024/03/01 06:13:21;;;;;;;0.80;0.80;;;;;;;5.06;100.00;100167.00;10494918;28;20078;-67
2024/03/01 06:18:22;;;;;;;0.50;0.50;;;;;;;4.98;100.00;100172.44;10432423;28;20083;-66
2024/03/01 06:23:22;;;;;;;0.57;0.57;;;;;;;5.16;100.00;100171.28;10494461;28;20488;-67
2024/03/01 06:28:23;;;;;;;0.60;0.60;;;;;;;5.22;100.00;100159.81;10492211;28;20027;-67
2024/03/01 06:33:23;;;;;;;0.60;0.60;;;;;;;5.19;100.00;100166.38;10494619;28;20491;-67
2024/03/01 06:38:24;;;;;;;0.60;0.60;;;;;;;5.09;100.00;100158.59;10494079;28;20029;-67
2024/03/01 06:43:24;;;;;;;0.50;0.50;;;;;;;5.23;100.00;100170.41;10494003;28;20059;-67
2024/03/01 06:48:24;;;;;;;0.60;0.60;;;;;;;5.28;100.00;100167.97;10492944;28;20616;-67
2024/03/01 06:53:26;;;;;;;0.60;0.60;;;;;;;5.22;100.00;100162.50;10493710;28;20056;-67
2024/03/01 06:58:27;;;;;;;1.05;1.05;;;;;;;5.42;100.00;100165.50;10491513;28;20504;-67
2024/03/01 07:03:28;;;;;;;0.60;0.60;;;;;;;5.48;100.00;100151.34;10492466;28;20104;-66
2024/03/01 07:08:28;;;;;;;0.88;0.88;;;;;;;5.96;100.00;100144.66;10493197;28;20032;-67
2024/03/01 07:13:29;;;;;;;0.60;0.60;;;;;;;6.51;100.00;100139.78;10493234;28;20029;-67
2024/03/01 07:18:29;;;;;;;0.60;0.60;;;;;;;7.13;100.00;100138.31;10492994;28;20037;-66
2024/03/01 07:23:30;;;;;;;7.18;5.45;;;;;;;7.27;100.00;100129.31;10493087;28;20028;-66
2024/03/01 07:28:31;;;;;;;13.50;7.38;;;;;;;7.54;100.00;100124.97;10491545;28;20029;-66
2024/03/01 07:33:31;;;;;;;9.45;8.57;;;;;;;7.85;100.00;100131.81;10492418;28;20025;-66
2024/03/01 07:38:31;;;;;;;10.68;8.73;;;;;;;8.18;100.00;100129.25;10491902;28;20028;-67
2024/03/01 07:43:32;;;;;;;18.55;8.50;;;;;;;8.46;100.00;100131.06;10492015;28;20028;-67
2024/03/01 07:48:32;;;;;;;10.07;9.18;;;;;;;8.81;100.00;100138.00;10491702;28;20055;-66
2024/03/01 07:53:33;;;;;;;17.73;8.63;;;;;;;8.89;100.00;100134.28;10491747;28;20048;-68
2024/03/01 07:58:33;;;;;;;10.18;7.65;;;;;;;8.75;100.00;100136.13;10490797;28;20082;-67
2024/03/01 08:03:35;;;;;;;8.70;7.20;;;;;;;8.03;100.00;100142.03;10490223;28;20032;-66
2024/03/01 08:08:35;;;;;;;9.55;7.75;;;;;;;7.46;100.00;100136.69;10491188;28;20032;-66
2024/03/01 08:13:36;;;;;;;16.80;9.35;;;;;;;7.06;100.00;100138.25;10491292;28;20032;-67
2024/03/01 08:18:37;;;;;;;9.48;8.23;;;;;;;6.89;100.00;100142.22;10489844;28;20032;-66
2024/03/01 08:23:39;;;;;;;14.35;9.52;;;;;;;6.99;100.00;100153.53;10490142;28;20181;-66
2024/03/01 08:28:42;;;;;;;19.20;9.35;;;;;;;7.43;100.00;100150.59;10490094;28;20100;-68
2024/03/01 08:33:42;;;;;;;19.13;8.73;;;;;;;8.85;100.00;100114.13;10491248;28;20036;-72
2024/03/01 08:38:43;;;;;;;10.60;6.93;;;;;;;8.15;100.00;100106.22;10473602;28;20028;-67
2024/03/01 08:43:43;;;;;;;11.65;6.60;;;;;;;7.60;100.00;100117.97;10491275;28;20483;-67
2024/03/01 08:48:44;;;;;;;7.57;6.78;;;;;;;7.26;100.00;100116.88;10493066;28;20031;-67
2024/03/01 08:54:01;;;;;;;11.63;7.18;;;;;;;7.49;100.00;100121.19;10497008;28;20060;-66
2024/03/01 08:59:27;;;;;;;10.23;7.50;;;;;;;7.65;100.00;100116.31;10497852;28;20140;-67
2024/03/01 09:04:28;;;;;;;7.80;5.90;;;;;;;7.23;100.00;100115.41;10490082;28;20054;-67
2024/03/01 09:09:29;;;;;;;14.93;7.85;;;;;;;7.12;100.00;100115.13;10496468;28;20012;-66
2024/03/01 09:14:31;;;;;;;8.88;7.30;;;;;;;7.04;100.00;100107.16;10497549;28;20051;-66
2024/03/01 09:19:38;;;;;;;12.23;6.43;;;;;;;7.18;100.00;100109.78;10479522;28;20093;-67
2024/03/01 09:24:39;;;;;;;7.35;6.18;;;;;;;7.07;100.00;100121.06;10463267;28;20111;-68
2024/03/01 09:29:40;;;;;;;8.85;5.95;;;;;;;7.12;100.00;100117.81;10496017;28;20111;-69
2024/03/01 09:34:43;;;;;;;8.65;3.72;;;;;;;7.16;100.00;100111.00;10496792;28;20565;-67
2024/03/01 09:39:44;;;;;;;7.53;4.43;;;;;;;8.22;100.00;100090.06;10496729;28;20032;-66
2024/03/01 09:44:58;;;;;;;12.07;5.97;;;;;;;8.53;100.00;100088.75;10495119;28;20119;-66
2024/03/01 09:50:04;;;;;;;8.93;5.63;;;;;;;8.43;100.00;100069.41;10494755;28;20107;-66
2024/03/01 09:55:45;;;;;;;10.93;5.70;;;;;;;8.96;100.00;100064.91;10496339;28;20132;-67
2024/03/01 10:01:12;;;;;;;5.68;4.55;;;;;;;9.18;100.00;100052.00;10490563;28;20032;-67
2024/03/01 10:06:42;;;;;;;3.92;3.63;;;;;;;8.39;100.00;100052.78;10495914;28;20033;-66
2024/03/01 10:12:18;;;;;;;10.20;6.60;;;;;;;9.04;100.00;100036.88;10479115;28;20476;-66
2024/03/01 10:17:50;;;;;;;6.30;5.80;;;;;;;9.71;100.00;100026.78;10459956;28;20036;-66
2024/03/01 10:22:55;;;;;;;6.80;5.07;;;;;;;10.60;100.00;100012.38;10495567;28;20467;-67
2024/03/01 10:28:00;;;;;;;7.45;4.97;;;;;;;10.74;100.00;100025.81;10493900;28;20023;-67
2024/03/01 10:33:19;;;;;;;5.63;4.22;;;;;;;9.35;100.00;99990.28;10476211;28;20028;-66
2024/03/01 10:39:01;;;;;;;6.15;4.45;;;;;;;10.56;100.00;99994.06;10492473;28;20021;-67
2024/03/01 10:44:12;;;;;;;9.55;4.28;;;;;;;10.00;100.00;99980.25;10485914;28;20044;-65
2024/03/01 10:49:26;;;;;;;3.92;3.50;;;;;;;8.98;100.00;99962.09;10492064;28;20634;-66
2024/03/01 10:54:29;;;;;;;8.23;3.25;;;;;;;10.02;100.00;99947.59;10491672;28;20048;-66
2024/03/01 10:59:43;;;;;;;5.40;3.25;;;;;;;10.24;100.00;99945.34;10474352;28;20039;-67
2024/03/01 11:04:49;;;;;;;7.20;3.40;;;;;;;9.86;100.00;99940.81;10492875;28;20533;-65
2024/03/01 11:10:00;;;;;;;3.55;3.25;;;;;;;9.68;100.00;99933.41;10459424;28;20045;-66
2024/03/01 11:15:09;;;;;;;8.52;3.22;;;;;;;9.87;100.00;99928.94;10492009;28;20050;-67
2024/03/01 11:20:13;;;;;;;3.67;2.80;;;;;;;9.43;100.00;99905.44;10490872;28;20027;-67
2024/03/01 11:25:19;;;;;;;4.72;3.42;;;;;;;9.39;100.00;99925.84;10490444;28;20035;-69
2024/03/01 11:30:20;;;;;;;8.77;2.80;;;;;;;9.80;100.00;99886.78;10492106;28;20369;-66
2024/03/01 11:35:22;;;;;;;6.70;2.85;;;;;;;10.55;100.00;99884.13;10490917;28;20021;-67
2024/03/01 11:40:33;;;;;;;6.30;2.15;;;;;;;9.47;100.00;99891.28;10491851;28;20660;-68
2024/03/01 11:46:02;;;;;;;2.17;1.80;;;;;;;9.33;100.00;99881.59;10491181;28;20059;-66
2024/03/01 11:51:28;;;;;;;8.70;3.08;;;;;;;9.28;100.00;99900.31;10476594;28;20035;-67
2024/03/01 11:56:46;;;;;;;4.35;3.20;;;;;;;9.27;100.00;99871.63;10491564;28;20392;-68
2024/03/01 12:02:06;;;;;;;10.98;3.10;;;;;;;8.95;100.00;99876.94;10491574;28;20119;-66
2024/03/01 12:07:45;;;;;;;4.65;2.30;;;;;;;8.43;100.00;99864.38;10490611;28;20020;-66
2024/03/01 12:12:50;;;;;;;2.70;1.80;;;;;;;8.21;100.00;99867.25;10483849;28;20028;-68
2024/03/01 12:18:24;;;;;;;5.40;1.75;;;;;;;8.16;100.00;99862.47;10473631;28;20024;-66
2024/03/01 12:23:35;;;;;;;2.40;1.27;;;;;;;8.15;100.00;99854.59;10492816;28;20109;-68
2024/03/01 12:29:02;;;;;;;2.90;2.28;;;;;;;8.13;100.00;99853.97;10499260;28;20094;-67
2024/03/01 12:34:32;;;;;;;3.65;2.38;;;;;;;8.26;100.00;99851.25;10498039;28;20031;-66
2024/03/01 12:39:32;;;;;;;2.25;1.70;;;;;;;8.32;100.00;99847.72;10497825;28;20032;-67
2024/03/01 12:44:41;;;;;;;6.32;1.35;;;;;;;8.25;100.00;99868.50;10497181;28;20029;-66
2024/03/01 12:50:09;;;;;;;13.95;2.35;;;;;;;8.09;100.00;99847.34;10497537;28;20017;-66
2024/03/01 12:55:14;;;;;;;6.35;2.35;;;;;;;8.08;100.00;99883.44;10498266;28;20060;-67
2024/03/01 13:00:19;;;;;;;2.90;1.30;;;;;;;7.80;100.00;99857.47;10497905;28;20145;-66
2024/03/01 13:05:37;;;;;;;1.33;1.23;;;;;;;7.73;100.00;99870.09;10497460;28;20028;-66
2024/03/01 13:10:38;;;;;;;1.15;1.05;;;;;;;7.46;100.00;99853.03;10498779;28;20024;-67
2024/03/01 13:15:42;;;;;;;5.25;2.40;;;;;;;7.25;100.00;99837.03;10497005;28;20028;-65
2024/03/01 13:21:02;;;;;;;2.85;1.20;;;;;;;7.25;100.00;99839.72;10496786;28;20098;-66
2024/03/01 13:26:20;;;;;;;8.32;2.42;;;;;;;7.27;100.00;99843.84;10497228;28;20021;-67
2024/03/01 13:31:25;;;;;;;4.82;2.20;;;;;;;7.33;100.00;99829.59;10496546;28;20021;-67
2024/03/01 13:36:28;;;;;;;4.03;1.83;;;;;;;7.39;100.00;99817.19;10497434;28;20031;-65
2024/03/01 13:41:30;;;;;;;1.85;1.70;;;;;;;7.34;100.00;99822.31;10497769;28;20499;-66
2024/03/01 13:46:39;;;;;;;1.77;1.65;;;;;;;7.31;100.00;99834.38;10496848;28;20065;-66
2024/03/01 13:51:40;;;;;;;3.33;1.38;;;;;;;7.26;100.00;99830.59;10496282;28;20024;-65
2024/03/01 13:56:40;;;;;;;1.85;1.40;;;;;;;7.15;100.00;99834.72;10498016;28;20412;-66
2024/03/01 14:01:41;;;;;;;3.20;1.92;;;;;;;7.21;100.00;99842.81;10496069;28;20039;-65
2024/03/01 14:06:45;;;;;;;1.92;1.80;;;;;;;7.23;100.00;99826.44;10495425;28;20036;-66
2024/03/01 14:11:46;;;;;;;1.73;1.60;;;;;;;7.56;100.00;99820.31;10495283;28;20488;-66
2024/03/01 14:16:47;;;;;;;2.67;2.22;;;;;;;7.74;100.00;99817.03;10495346;28;20032;-66
2024/03/01 14:21:47;;;;;;;3.20;1.17;;;;;;;8.04;100.00;99817.44;10494294;28;20028;-65
2024/03/01 14:26:48;;;;;;;3.35;1.73;;;;;;;8.45;100.00;99828.03;10494243;28;20052;-66
2024/03/01 14:32:09;;;;;;;7.30;2.22;;;;;;;8.74;100.00;99825.91;10494548;28;20028;-66
2024/03/01 14:37:10;;;;;;;3.13;1.10;;;;;;;8.62;100.00;99814.94;10494400;28;20082;-66
2024/03/01 14:42:18;;;;;;;1.10;1.10;;;;;;;8.69;100.00;99809.53;10494132;28;20060;-66
2024/03/01 14:47:24;;;;;;;3.72;1.77;;;;;;;8.66;100.00;99810.78;10491740;28;20168;-66
2024/03/01 14:52:25;;;;;;;3.83;2.40;;;;;;;8.68;100.00;99829.44;10493298;28;20348;-66
2024/03/01 14:57:27;;;;;;;6.28;1.92;;;;;;;8.53;100.00;99800.84;10492828;28;20056;-67
2024/03/01 15:02:28;;;;;;;4.88;1.67;;;;;;;8.63;100.00;99811.19;10492852;28;20116;-66
2024/03/01 15:07:28;;;;;;;2.25;1.70;;;;;;;8.59;100.00;99827.00;10491893;28;20024;-66
2024/03/01 15:12:29;;;;;;;3.20;2.50;;;;;;;8.59;100.00;99805.41;10493004;28;20476;-66
2024/03/01 15:17:29;;;;;;;3.20;1.73;;;;;;;8.50;100.00;99822.84;10492988;28;20039;-66
2024/03/01 15:22:29;;;;;;;4.82;1.65;;;;;;;7.89;100.00;99871.59;10492439;28;20029;-66
2024/03/01 15:27:30;;;;;;;0.50;0.50;;;;;;;7.16;100.00;99874.88;10492180;28;20044;-65
2024/03/01 15:32:31;;;;;;;0.50;0.50;;;;;;;6.77;100.00;99869.31;10491050;28;20061;-65
2024/03/01 15:37:33;;;;;;;0.50;0.50;;;;;;;6.53;100.00;99883.00;10492096;28;20070;-66
2024/03/01 15:42:33;;;;;;;1.17;1.17;;;;;;;6.33;100.00;99887.41;10492152;28;20472;-67
2024/03/01 15:47:34;;;;;;;0.50;0.50;;;;;;;6.40;100.00;99885.59;10491857;28;20040;-65
2024/03/01 15:52:34;;;;;;;0.43;0.43;;;;;;;6.33;100.00;99873.16;10491893;28;20028;-67
2024/03/01 15:57:36;;;;;;;0.55;0.55;;;;;;;6.45;100.00;99871.59;10493422;28;20044;-65
2024/03/01 16:02:38;;;;;;;0.50;0.50;;;;;;;6.46;100.00;99857.94;10505592;28;20048;-65
2024/03/01 16:07:46;;;;;;;0.50;0.50;;;;;;;6.53;100.00;99872.25;10505446;28;20028;-65
2024/03/01 16:12:56;;;;;;;0.43;0.43;;;;;;;6.60;100.00;99858.03;10504278;28;20036;-65
2024/03/01 16:17:57;;;;;;;0.82;0.82;;;;;;;6.60;100.00;99853.47;10504500;28;20085;-64
2024/03/01 16:22:58;;;;;;;0.50;0.50;;;;;;;6.49;100.00;99860.22;10504385;28;20024;-67
2024/03/01 16:27:58;;;;;;;0.50;0.50;;;;;;;6.52;100.00;99859.00;10503139;28;20012;-66
2024/03/01 16:32:58;;;;;;;0.30;0.30;;;;;;;6.62;100.00;99861.34;10503706;28;20032;-65
2024/03/01 16:37:59;;;;;;;0.50;0.50;;;;;;;6.85;100.00;99855.69;10503276;28;20066;-65
2024/03/01 16:42:59;;;;;;;0.50;0.50;;;;;;;6.88;100.00;99852.59;10503381;28;20119;-65
2024/03/01 16:48:09;;;;;;;0.95;0.95;;;;;;;6.79;100.00;99861.84;10486614;28;20040;-65
2024/03/01 16:53:09;;;;;;;0.60;0.60;;;;;;;6.75;100.00;99851.50;10486847;28;20028;-66
2024/03/01 16:58:10;;;;;;;0.50;0.50;;;;;;;6.80;100.00;99858.16;10502930;28;20541;-64
2024/03/01 17:03:32;;;;;;;0.50;0.50;;;;;;;6.75;100.00;99848.81;10486524;28;20078;-64
2024/03/01 17:08:32;;;;;;;0.50;0.50;;;;;;;6.62;100.00;99848.72;10502064;28;20095;-66
2024/03/01 17:13:33;;;;;;;0.93;0.93;;;;;;;6.59;100.00;99841.06;10497170;28;20544;-65
2024/03/01 17:18:33;;;;;;;0.40;0.40;;;;;;;6.50;100.00;99853.81;10479540;28;20043;-66
2024/03/01 17:23:34;;;;;;;0.60;0.60;;;;;;;6.40;100.00;99855.19;10497269;28;20040;-67
2024/03/01 17:28:34;;;;;;;0.50;0.50;;;;;;;6.35;100.00;99860.31;10496787;28;20029;-66
2024/03/01 17:33:34;;;;;;;0.45;0.45;;;;;;;6.43;100.00;99858.31;10496854;28;20055;-66
2024/03/01 17:38:35;;;;;;;0.52;0.52;;;;;;;6.49;100.00;99871.00;10495077;28;20048;-65
2024/03/01 17:43:35;;;;;;;0.60;0.60;;;;;;;6.61;100.00;99857.00;10496440;28;20112;-66
2024/03/01 17:48:36;;;;;;;0.60;0.60;;;;;;;6.60;100.00;99861.53;10512361;28;20074;-67
2024/03/01 17:53:36;;;;;;;0.60;0.60;;;;;;;6.71;100.00;99861.00;10494809;28;20020;-66
2024/03/01 17:58:41;;;;;;;2.80;2.70;;;;;;;6.76;100.00;99873.84;10494504;28;20391;-66
2024/03/01 18:03:41;;;;;;;0.60;0.60;;;;;;;6.77;100.00;99872.84;10495961;28;20025;-68
2024/03/01 18:08:41;;;;;;;0.50;0.50;;;;;;;6.84;100.00;99871.00;10494776;28;20029;-65
2024/03/01 18:13:42;;;;;;;0.50;0.50;;;;;;;6.87;100.00;99864.41;10496888;28;20448;-69
2024/03/01 18:18:42;;;;;;;1.10;1.10;;;;;;;6.83;100.00;99860.44;10496659;28;20039;-66
2024/03/01 18:23:43;;;;;;;0.60;0.60;;;;;;;6.87;100.00;99867.91;10494377;28;20028;-66
2024/03/01 18:28:43;;;;;;;0.50;0.50;;;;;;;6.72;100.00;99862.66;10494502;28;20033;-65
2024/03/01 18:33:43;;;;;;;0.50;0.50;;;;;;;6.62;100.00;99847.91;10493093;28;20089;-65
2024/03/01 18:38:44;;;;;;;0.50;0.50;;;;;;;6.52;100.00;99845.56;10494532;28;20025;-65
2024/03/01 18:43:44;;;;;;;0.60;0.60;;;;;;;6.57;100.00;99853.03;10493342;28;20081;-67
2024/03/01 18:48:45;;;;;;;0.50;0.50;;;;;;;6.65;100.00;99834.06;10494089;28;20033;-64
2024/03/01 18:53:45;;;;;;;0.50;0.50;;;;;;;6.64;100.00;99827.03;10475806;28;20056;-65
2024/03/01 18:58:45;;;;;;;1.25;1.25;;;;;;;6.67;100.00;99821.25;10493060;28;20024;-65
2024/03/01 19:03:46;;;;;;;0.75;0.75;;;;;;;6.65;100.00;99817.91;10493393;28;20432;-65
2024/03/01 19:08:46;;;;;;;0.50;0.50;;;;;;;6.76;100.00;99817.34;10492935;28;20029;-66
2024/03/01 19:13:49;;;;;;;0.60;0.60;;;;;;;6.65;100.00;99797.22;10493220;28;20032;-66
2024/03/01 19:18:49;;;;;;;0.55;0.55;;;;;;;6.65;100.00;99797.22;10492773;28;20031;-65
2024/03/01 19:23:49;;;;;;;0.50;0.50;;;;;;;6.65;100.00;99782.94;10492800;28;20037;-65
2024/03/01 19:28:51;;;;;;;0.57;0.57;;;;;;;6.38;100.00;99779.25;10492822;28;20103;-65
2024/03/01 19:33:51;;;;;;;0.63;0.63;;;;;;;6.23;100.00;99769.47;10492452;28;20044;-65
2024/03/01 19:38:52;;;;;;;0.40;0.40;;;;;;;6.16;100.00;99755.16;10492374;28;20559;-66
2024/03/01 19:43:52;;;;;;;1.58;1.52;;;;;;;6.16;100.00;99765.91;10493091;28;20077;-67
2024/03/01 19:48:53;;;;;;;0.52;0.52;;;;;;;6.15;100.00;99747.28;10492135;28;20464;-65
2024/03/01 19:53:53;;;;;;;0.60;0.60;;;;;;;6.16;100.00;99736.34;10427806;28;20209;-65
2024/03/01 19:58:53;;;;;;;1.40;1.40;;;;;;;6.24;100.00;99730.78;10491077;28;20040;-65
2024/03/01 20:03:54;;;;;;;1.10;1.10;;;;;;;6.33;100.00;99727.97;10490787;28;20052;-67
2024/03/01 20:08:54;;;;;;;0.50;0.50;;;;;;;6.44;100.00;99716.63;10491944;28;20048;-66
2024/03/01 20:13:55;;;;;;;0.60;0.60;;;;;;;6.55;100.00;99713.38;10490947;28;20379;-66
2024/03/01 20:18:55;;;;;;;5.97;3.13;;;;;;;6.64;100.00;99701.41;10490464;28;20143;-66
2024/03/01 20:23:55;;;;;;;0.93;0.93;;;;;;;6.77;100.00;99702.50;10474365;28;20367;-66
2024/03/01 20:28:57;;;;;;;0.40;0.40;;;;;;;6.83;100.00;99691.75;10491782;28;20078;-67
2024/03/01 20:33:57;;;;;;;0.43;0.43;;;;;;;6.74;100.00;99671.44;10492952;28;20052;-66
2024/03/01 20:38:58;;;;;;;0.50;0.50;;;;;;;6.70;100.00;99656.72;10493960;28;20060;-65
2024/03/01 20:43:58;;;;;;;0.50;0.50;;;;;;;6.77;100.00;99656.75;10496040;28;20039;-66
2024/03/01 20:48:59;;;;;;;0.50;0.50;;;;;;;6.84;100.00;99634.22;10501799;28;20062;-65
2024/03/01 20:53:59;;;;;;;0.50;0.50;;;;;;;6.85;100.00;99637.72;10515903;28;20068;-66
2024/03/01 20:58:59;;;;;;;0.50;0.50;;;;;;;6.95;100.00;99620.13;10497752;28;20358;-67
2024/03/01 21:04:01;;;;;;;0.52;0.52;;;;;;;7.01;100.00;99615.78;10496464;28;20036;-66
2024/03/01 21:09:01;;;;;;;0.50;0.50;;;;;;;7.02;100.00;99622.00;10497923;28;20444;-65
2024/03/01 21:14:03;;;;;;;0.52;0.52;;;;;;;7.15;100.00;99605.88;10497371;28;20115;-65
2024/03/01 21:19:03;;;;;;;8.63;1.52;;;;;;;7.19;100.00;99599.03;10496748;28;20476;-66
2024/03/01 21:24:04;;;;;;;0.52;0.52;;;;;;;7.37;100.00;99584.94;10497185;28;20032;-67
2024/03/01 21:29:04;;;;;;;0.50;0.50;;;;;;;7.51;100.00;99591.97;10497392;28;20070;-66
2024/03/01 21:34:05;;;;;;;10.15;4.18;;;;;;;7.55;100.00;99571.66;10479032;28;20474;-65
2024/03/01 21:39:06;;;;;;;0.30;0.30;;;;;;;7.53;100.00;99573.75;10496661;28;20039;-66
2024/03/01 21:44:06;;;;;;;0.50;0.50;;;;;;;7.44;100.00;99578.50;10495407;28;20024;-66
2024/03/01 21:49:07;;;;;;;0.55;0.55;;;;;;;7.46;100.00;99570.22;10496058;28;20029;-68
2024/03/01 21:54:07;;;;;;;0.50;0.50;;;;;;;7.44;100.00;99556.97;10495788;28;20067;-65
2024/03/01 21:59:09;;;;;;;0.50;0.50;;;;;;;7.42;100.00;99542.88;10494941;28;20112;-67
2024/03/01 22:04:09;;;;;;;0.50;0.50;;;;;;;7.49;100.00;99540.16;10495644;28;20349;-67
2024/03/01 22:09:10;;;;;;;0.50;0.50;;;;;;;7.55;100.00;99507.00;10494842;28;20099;-66
2024/03/01 22:14:10;;;;;;;0.50;0.50;;;;;;;7.67;100.00;99502.59;10510489;28;20065;-65
2024/03/01 22:19:11;;;;;;;0.50;0.50;;;;;;;7.79;100.00;99513.56;10494471;28;20024;-64
2024/03/01 22:24:11;;;;;;;1.38;1.38;;;;;;;7.92;100.00;99507.28;10494713;28;20549;-67
2024/03/01 22:29:12;;;;;;;0.60;0.60;;;;;;;8.04;100.00;99516.34;10493676;28;20059;-66
2024/03/01 22:34:12;;;;;;;0.60;0.60;;;;;;;8.20;100.00;99506.09;10494392;28;20508;-65
2024/03/01 22:39:12;;;;;;;0.50;0.50;;;;;;;8.46;100.00;99489.78;10494306;28;20021;-65
2024/03/01 22:44:13;;;;;;;0.50;0.50;;;;;;;8.64;100.00;99496.28;10494212;28;20052;-65
2024/03/01 22:49:13;;;;;;;8.38;1.40;;;;;;;8.64;100.00;99515.19;10494498;28;20348;-66
2024/03/01 22:54:26;;;;;;;7.13;1.80;;;;;;;8.21;100.00;99548.22;10492435;28;20140;-67
2024/03/01 22:59:26;;;;;;;0.50;0.50;;;;;;;7.76;100.00;99549.00;10507537;28;20055;-66
2024/03/01 23:04:32;;;;;;;0.50;0.50;;;;;;;7.39;100.00;99599.03;10493255;28;20753;-64
2024/03/01 23:09:32;;;;;;;0.60;0.60;;;;;;;7.11;100.00;99616.22;10507801;28;20056;-63
2024/03/01 23:14:49;;;;;;;0.55;0.55;;;;;;;6.83;100.00;99620.94;10508350;28;20131;-65
2024/03/01 23:19:50;;;;;;;;;;;;;;;6.71;100.00;99621.56;10491636;28;20020;-65
2024/03/01 23:24:50;;;;;;;0.40;0.40;;;;;;;6.56;100.00;99644.28;10492461;28;20406;-68